createdAt,value
2022-10-26T00:01:54.176Z,100811.84
2022-10-26T00:06:56.460Z,100840.53
2022-10-26T00:11:58.677Z,100821.31
2022-10-26T00:17:01.229Z,100822.97
2022-10-26T00:22:03.573Z,100838.78
2022-10-26T00:27:06.285Z,100841.47
2022-10-26T00:32:08.683Z,100846.66
2022-10-26T00:37:10.895Z,100842.69
2022-10-26T00:42:20.397Z,100840.81
2022-10-26T00:47:48.216Z,100832.47
2022-10-26T00:52:55.331Z,100830.03
2022-10-26T00:57:57.863Z,100818.59
2022-10-26T01:03:05.337Z,100806.34
2022-10-26T01:08:09.170Z,100820.50
2022-10-26T01:13:13.025Z,100820.91
2022-10-26T01:18:48.549Z,100817.78
2022-10-26T01:24:09.993Z,100827.56
2022-10-26T01:29:31.029Z,100835.03
2022-10-26T01:34:43.315Z,100820.69
2022-10-26T01:39:59.268Z,100815.50
2022-10-26T01:45:08.484Z,100818.53
2022-10-26T01:50:11.982Z,100812.25
2022-10-26T01:55:32.917Z,100814.16
2022-10-26T02:00:40.041Z,100806.25
2022-10-26T02:06:03.741Z,100807.47
2022-10-26T02:11:05.903Z,100816.78
2022-10-26T02:16:23.028Z,100820.56
2022-10-26T02:21:31.886Z,100821.22
2022-10-26T02:26:35.075Z,100784.81
2022-10-26T02:31:39.518Z,100818.06
2022-10-26T02:36:45.707Z,100815.31
2022-10-26T02:41:49.417Z,100810.09
2022-10-26T02:46:53.604Z,100819.91
2022-10-26T02:52:05.018Z,100814.44
2022-10-26T02:57:15.785Z,100845.41
2022-10-26T03:02:20.049Z,100843.47
2022-10-26T03:07:23.975Z,100842.47
2022-10-26T03:12:26.192Z,100841.47
2022-10-26T03:17:28.447Z,100838.13
2022-10-26T03:22:30.823Z,100843.25
2022-10-26T03:27:33.125Z,100821.97
2022-10-26T03:32:35.388Z,100853.38
2022-10-26T03:37:37.627Z,100854.78
2022-10-26T03:42:40.955Z,100842.25
2022-10-26T03:47:45.424Z,100831.72
2022-10-26T03:52:48.911Z,100826.38
2022-10-26T03:57:51.333Z,100840.94
2022-10-26T04:02:58.882Z,100851.53
2022-10-26T04:08:05.285Z,100856.28
2022-10-26T04:13:07.788Z,100865.31
2022-10-26T04:18:13.346Z,100857.31
2022-10-26T04:23:17.579Z,100878.84
2022-10-26T04:28:20.151Z,100860.31
2022-10-26T04:33:22.351Z,100899.59
2022-10-26T04:38:24.669Z,100893.66
2022-10-26T04:43:27.273Z,100880.78
2022-10-26T04:48:29.767Z,100895.78
2022-10-26T04:53:32.349Z,100895.84
2022-10-26T04:58:34.581Z,100874.81
2022-10-26T05:03:36.815Z,100887.91
2022-10-26T05:08:39.011Z,100889.94
2022-10-26T05:13:42.367Z,100902.47
2022-10-26T05:18:44.820Z,100902.00
2022-10-26T05:23:55.748Z,100931.03
2022-10-26T05:28:57.995Z,100919.56
2022-10-26T05:34:00.431Z,100936.72
2022-10-26T05:39:02.891Z,100945.34
2022-10-26T05:44:05.359Z,100924.31
2022-10-26T05:49:07.556Z,100944.97
2022-10-26T05:54:13.650Z,100947.03
2022-10-26T05:59:17.314Z,100947.72
2022-10-26T06:04:39.111Z,100963.88
2022-10-26T06:09:42.370Z,100970.47
2022-10-26T06:14:45.083Z,100966.78
2022-10-26T06:19:59.526Z,100980.19
2022-10-26T06:25:16.818Z,100981.94
2022-10-26T06:30:20.877Z,100976.59
2022-10-26T06:35:48.225Z,100972.78
2022-10-26T06:40:53.837Z,101000.59
2022-10-26T06:46:31.150Z,100992.16
2022-10-26T06:51:42.190Z,100990.09
2022-10-26T06:56:45.906Z,101004.56
2022-10-26T07:01:48.315Z,101006.28
2022-10-26T07:06:50.658Z,101004.69
2022-10-26T07:11:52.905Z,101003.06
2022-10-26T07:16:57.357Z,101021.44
2022-10-26T07:22:00.753Z,101006.50
2022-10-26T07:27:03.112Z,101005.50
2022-10-26T07:32:05.625Z,101016.34
2022-10-26T07:37:08.069Z,101000.72
2022-10-26T07:42:10.595Z,101006.97
2022-10-26T07:47:12.998Z,101015.69
2022-10-26T07:52:15.222Z,101013.78
2022-10-26T07:57:18.284Z,101025.78
2022-10-26T08:02:21.435Z,101003.91
2022-10-26T08:07:23.781Z,101024.44
2022-10-26T08:12:25.991Z,101010.22
2022-10-26T08:17:29.813Z,101022.97
2022-10-26T08:22:32.237Z,100992.94
2022-10-26T08:27:34.436Z,101025.97
2022-10-26T08:32:36.611Z,101020.03
2022-10-26T08:37:38.832Z,100979.16
2022-10-26T08:42:47.051Z,100985.03
2022-10-26T08:47:53.799Z,100999.59
2022-10-26T08:53:29.867Z,101012.09
2022-10-26T08:58:47.542Z,101015.03
2022-10-26T09:03:50.271Z,100999.66
2022-10-26T09:09:20.264Z,101024.16
2022-10-26T09:14:33.381Z,101028.94
2022-10-26T09:20:13.797Z,101013.34
2022-10-26T09:25:21.306Z,101013.34
2022-10-26T09:30:24.213Z,100996.28
2022-10-26T09:35:35.136Z,100994.88
2022-10-26T09:41:01.038Z,101004.16
2022-10-26T09:46:03.357Z,100971.22
2022-10-26T09:51:05.813Z,101006.16
2022-10-26T09:56:13.472Z,101009.22
2022-10-26T10:01:40.085Z,100988.16
2022-10-26T10:06:46.326Z,100995.00
2022-10-26T10:12:07.218Z,100978.25
2022-10-26T10:17:22.111Z,100976.19
2022-10-26T10:22:27.376Z,100976.81
2022-10-26T10:27:31.362Z,100965.75
2022-10-26T10:32:37.000Z,100958.91
2022-10-26T10:37:47.375Z,100947.59
2022-10-26T10:42:52.314Z,100938.63
2022-10-26T10:48:02.906Z,100922.38
2022-10-26T10:53:26.115Z,100936.72
2022-10-26T10:58:37.888Z,100916.72
2022-10-26T11:03:49.473Z,100930.00
2022-10-26T11:09:08.606Z,100923.41
2022-10-26T11:14:25.631Z,100917.03
2022-10-26T11:19:36.553Z,100906.53
2022-10-26T11:24:47.758Z,100904.88
2022-10-26T11:30:04.397Z,100897.03
2022-10-26T11:35:31.766Z,100895.75
2022-10-26T11:41:12.715Z,100890.63
2022-10-26T11:46:28.706Z,100886.59
2022-10-26T11:51:31.026Z,100880.44
2022-10-26T11:56:39.326Z,100867.91
2022-10-26T12:01:44.688Z,100871.91
2022-10-26T12:06:48.820Z,100879.16
2022-10-26T12:11:59.198Z,100843.28
2022-10-26T12:17:20.467Z,100856.31
2022-10-26T12:22:28.323Z,100859.09
2022-10-26T12:27:40.142Z,100855.88
2022-10-26T12:32:43.858Z,100859.22
2022-10-26T12:37:46.398Z,100841.63
2022-10-26T12:42:48.594Z,100843.06
2022-10-26T12:47:51.099Z,100843.59
2022-10-26T12:52:57.394Z,100836.19
2022-10-26T12:58:30.732Z,100844.94
2022-10-26T13:03:45.121Z,100849.31
2022-10-26T13:08:57.776Z,100833.09
2022-10-26T13:14:09.695Z,100820.72
2022-10-26T13:19:25.956Z,100827.81
2022-10-26T13:24:32.237Z,100833.84
2022-10-26T13:30:12.721Z,100840.34
2022-10-26T13:35:16.462Z,100829.69
2022-10-26T13:40:22.738Z,100839.03
2022-10-26T13:45:34.975Z,100855.44
2022-10-26T13:50:41.046Z,100857.13
2022-10-26T13:55:55.872Z,100842.56
2022-10-26T14:01:10.490Z,100873.03
2022-10-26T14:06:39.929Z,100845.31
2022-10-26T14:11:58.814Z,100861.44
2022-10-26T14:17:02.015Z,100867.22
2022-10-26T14:22:05.103Z,100863.06
2022-10-26T14:27:28.707Z,100863.16
2022-10-26T14:32:37.066Z,100880.13
2022-10-26T14:37:53.557Z,100885.75
2022-10-26T14:42:59.198Z,100893.16
2022-10-26T14:48:03.308Z,100877.63
2022-10-26T14:53:17.579Z,100879.28
2022-10-26T14:58:31.575Z,100877.28
2022-10-26T15:03:33.807Z,100876.38
2022-10-26T15:08:55.976Z,100900.91
2022-10-26T15:13:59.753Z,100905.63
2022-10-26T15:19:11.431Z,100903.44
2022-10-26T15:24:33.188Z,100910.28
2022-10-26T15:29:49.968Z,100891.53
2022-10-26T15:35:16.576Z,100920.59
2022-10-26T15:40:19.686Z,100927.22
2022-10-26T15:45:28.093Z,100930.75
2022-10-26T15:50:30.427Z,100923.25
2022-10-26T15:55:32.821Z,100939.22
2022-10-26T16:00:35.178Z,100913.38
2022-10-26T16:05:37.590Z,100949.41
2022-10-26T16:10:39.873Z,100972.72
2022-10-26T16:15:42.674Z,100971.81
2022-10-26T16:20:48.366Z,100967.88
2022-10-26T16:25:50.563Z,100974.56
2022-10-26T16:30:58.705Z,100962.31
2022-10-26T16:36:01.544Z,100980.69
2022-10-26T16:41:15.917Z,100997.66
2022-10-26T16:46:22.139Z,101019.66
2022-10-26T16:51:29.721Z,101019.19
2022-10-26T16:56:32.003Z,101018.38
2022-10-26T17:01:34.711Z,101029.00
2022-10-26T17:06:36.992Z,101016.81
2022-10-26T17:11:39.318Z,101022.47
2022-10-26T17:16:41.539Z,101039.28
2022-10-26T17:21:44.996Z,101040.44
2022-10-26T17:26:47.369Z,101042.66
2022-10-26T17:31:49.819Z,101044.94
2022-10-26T17:36:52.640Z,101061.88
2022-10-26T17:41:55.495Z,101063.75
2022-10-26T17:46:58.070Z,101060.16
2022-10-26T17:52:00.678Z,101064.53
2022-10-26T17:57:03.480Z,101060.91
2022-10-26T18:02:06.239Z,101062.69
2022-10-26T18:07:09.103Z,101065.63
2022-10-26T18:12:11.637Z,101076.88
2022-10-26T18:17:14.337Z,101098.50
2022-10-26T18:22:17.034Z,101090.53
2022-10-26T18:27:20.761Z,101116.13
2022-10-26T18:32:25.298Z,101106.44
2022-10-26T18:37:28.443Z,101093.78
2022-10-26T18:42:31.042Z,101124.66
2022-10-26T18:47:34.156Z,101104.59
2022-10-26T18:52:36.734Z,101120.81
2022-10-26T18:57:39.428Z,101138.19
2022-10-26T19:02:41.959Z,101138.94
2022-10-26T19:07:44.551Z,101118.22
2022-10-26T19:12:47.241Z,101156.59
2022-10-26T19:17:50.282Z,101145.47
2022-10-26T19:22:55.558Z,101164.03
2022-10-26T19:27:58.032Z,101171.63
2022-10-26T19:33:00.933Z,101159.88
2022-10-26T19:38:03.236Z,101175.41
2022-10-26T19:43:05.496Z,101182.91
2022-10-26T19:48:08.031Z,101189.34
2022-10-26T19:53:10.757Z,101200.25
2022-10-26T19:58:14.179Z,101195.28
2022-10-26T20:03:16.561Z,101189.13
2022-10-26T20:08:20.253Z,101220.16
2022-10-26T20:13:23.315Z,101229.56
2022-10-26T20:18:26.319Z,101227.78
2022-10-26T20:23:28.804Z,101206.53
2022-10-26T20:28:31.586Z,101234.44
2022-10-26T20:33:34.142Z,101219.06
2022-10-26T20:38:37.343Z,101212.00
2022-10-26T20:43:41.334Z,101244.91
2022-10-26T20:48:44.051Z,101242.22
2022-10-26T20:53:54.533Z,101239.91
2022-10-26T20:58:59.004Z,101256.00
2022-10-26T21:04:03.604Z,101249.97
2022-10-26T21:09:06.564Z,101259.56
2022-10-26T21:14:09.100Z,101246.84
2022-10-26T21:19:11.560Z,101234.38
2022-10-26T21:24:14.038Z,101258.34
2022-10-26T21:29:16.573Z,101280.88
2022-10-26T21:34:18.841Z,101277.28
2022-10-26T21:39:21.218Z,101263.53
2022-10-26T21:44:39.928Z,101289.75
2022-10-26T21:49:43.038Z,101286.22
2022-10-26T21:54:45.326Z,101291.41
2022-10-26T21:59:47.757Z,101278.28
2022-10-26T22:04:50.107Z,101283.06
2022-10-26T22:10:07.856Z,101293.69
2022-10-26T22:15:13.054Z,101246.16
2022-10-26T22:20:15.294Z,101284.69
2022-10-26T22:25:17.529Z,101297.44
2022-10-26T22:30:19.937Z,101293.88
2022-10-26T22:35:29.464Z,101281.97
2022-10-26T22:40:32.376Z,101309.31
2022-10-26T22:45:34.587Z,101288.81
2022-10-26T22:50:38.801Z,101313.84
2022-10-26T22:55:45.554Z,101308.19
2022-10-26T23:00:48.137Z,101324.66
2022-10-26T23:05:50.557Z,101300.81
2022-10-26T23:10:52.986Z,101320.38
2022-10-26T23:15:55.908Z,101324.06
2022-10-26T23:20:58.285Z,101313.75
2022-10-26T23:26:09.450Z,101330.22
2022-10-26T23:31:23.544Z,101352.91
2022-10-26T23:36:26.313Z,101332.31
2022-10-26T23:41:29.367Z,101330.00
2022-10-26T23:46:31.845Z,101331.47
2022-10-26T23:51:34.188Z,101314.19
2022-10-26T23:56:36.589Z,101323.31
